Time;durP1;ratioP1;P1;durP2;ratioP2;P2;SDS_P1;SDS_P2;PMS_P1;PMS_P2;Temp;Humidity;BMP_temperature;BMP_pressure;BME280_temperature;BME280_humidity;BME280_pressure;Samples;Min_cycle;Max_cycle;Signal;HPM_P1;HPM_P2
2021/10/30 00:01:52;;;;;;;;;;;;;;;5.09;100.00;100516.66;5152259;27;20345;-74
2021/10/30 00:04:18;;;;;;;;;;;;;;;4.95;100.00;100515.66;5152678;27;19927;-74
2021/10/30 00:06:44;;;;;;;;;;;;;;;4.83;100.00;100517.28;5151251;27;20007;-74
2021/10/30 00:09:11;;;;;;;;;;;;;;;4.73;100.00;100526.00;5152897;27;20013;-73
2021/10/30 00:11:37;;;;;;;;;;;;;;;4.58;100.00;100523.25;5152187;27;19923;-74
2021/10/30 00:14:04;;;;;;;;;;;;;;;4.48;100.00;100520.25;5152607;27;20590;-74
2021/10/30 00:16:30;;;;;;;;;;;;;;;4.42;100.00;100528.66;5152348;27;19927;-73
2021/10/30 00:18:58;;;;;;;;;;;;;;;4.31;100.00;100532.00;5151470;27;19966;-74
2021/10/30 00:21:24;;;;;;;;;;;;;;;4.22;100.00;100527.16;5151911;27;20022;-74
2021/10/30 00:23:51;;;;;;;;;;;;;;;4.15;100.00;100536.53;5152718;27;20340;-73
2021/10/30 00:26:17;;;;;;;;;;;;;;;4.14;100.00;100532.97;5152410;27;19987;-74
2021/10/30 00:28:44;;;;;;;;;;;;;;;4.05;100.00;100525.44;5152711;27;20022;-73
2021/10/30 00:31:11;;;;;;;;;;;;;;;4.01;100.00;100526.59;5152184;27;19972;-74
2021/10/30 00:33:38;;;;;;;;;;;;;;;3.92;100.00;100527.09;5152303;27;19923;-74
2021/10/30 00:36:05;;;;;;;;;;;;;;;3.87;100.00;100527.34;5152710;27;19961;-73
2021/10/30 00:38:32;;;;;;;;;;;;;;;3.93;100.00;100531.50;5152319;27;20420;-73
2021/10/30 00:40:58;;;;;;;;;;;;;;;3.93;100.00;100536.88;5152126;27;19975;-74
2021/10/30 00:43:24;;;;;;;;;;;;;;;3.87;100.00;100540.78;5152400;27;19979;-74
2021/10/30 00:45:51;;;;;;;;;;;;;;;3.90;100.00;100524.50;5152244;27;19927;-74
2021/10/30 00:48:18;;;;;;;;;;;;;;;3.82;100.00;100524.94;5152436;27;19966;-73
2021/10/30 00:50:44;;;;;;;;;;;;;;;3.73;100.00;100538.88;5152056;27;20475;-74
2021/10/30 00:53:12;;;;;;;;;;;;;;;3.77;100.00;100532.38;5152307;27;19967;-69
2021/10/30 00:55:40;;;;;;;;;;;;;;;3.85;100.00;100523.91;5152115;27;19923;-69
2021/10/30 00:58:07;;;;;;;;;;;;;;;3.89;100.00;100521.88;5151757;27;19958;-69
2021/10/30 01:00:33;;;;;;;;;;;;;;;3.79;100.00;100514.34;5152053;27;20355;-69
2021/10/30 01:03:00;;;;;;;;;;;;;;;3.68;100.00;100517.63;5153722;27;20414;-69
2021/10/30 01:05:26;;;;;;;;;;;;;;;3.58;100.00;100515.56;5156062;27;20013;-69
2021/10/30 01:07:53;;;;;;;;;;;;;;;3.48;100.00;100516.06;5155829;27;19962;-69
2021/10/30 01:10:21;;;;;;;;;;;;;;;3.44;100.00;100514.50;5155831;27;19934;-69
2021/10/30 01:12:47;;;;;;;;;;;;;;;3.40;100.00;100515.63;5155689;27;20030;-69
2021/10/30 01:15:14;;;;;;;;;;;;;;;3.41;100.00;100522.72;5155735;27;19954;-69
2021/10/30 01:17:40;;;;;;;;;;;;;;;3.43;100.00;100523.50;5155925;27;20031;-69
2021/10/30 01:20:08;;;;;;;;;;;;;;;3.47;100.00;100517.00;5155353;27;20430;-69
2021/10/30 01:22:36;;;;;;;;;;;;;;;3.43;100.00;100518.13;5155748;27;19950;-69
2021/10/30 01:25:03;;;;;;;;;;;;;;;3.42;100.00;100526.25;5155610;27;19923;-70
2021/10/30 01:27:29;;;;;;;;;;;;;;;3.48;100.00;100524.09;5155606;27;19947;-69
2021/10/30 01:29:56;;;;;;;;;;;;;;;3.47;100.00;100516.16;5155366;27;19962;-69
2021/10/30 01:32:23;;;;;;;;;;;;;;;3.52;100.00;100514.94;5155123;27;19927;-69
2021/10/30 01:34:49;;;;;;;;;;;;;;;3.61;100.00;100527.00;5155471;27;19923;-67
2021/10/30 01:37:17;;;;;;;;;;;;;;;3.72;100.00;100512.97;5155548;27;19926;-69
2021/10/30 01:39:43;;;;;;;;;;;;;;;3.78;100.00;100518.00;5155359;27;20019;-69
2021/10/30 01:42:09;;;;;;;;;;;;;;;3.87;100.00;100510.38;5155102;27;20021;-68
2021/10/30 01:44:36;;;;;;;;;;;;;;;3.94;100.00;100518.00;5155577;27;19950;-68
2021/10/30 01:47:02;;;;;;;;;;;;;;;4.02;100.00;100513.06;5155261;27;19951;-68
2021/10/30 01:49:29;;;;;;;;;;;;;;;4.07;100.00;100511.94;5155379;27;19992;-68
2021/10/30 01:51:56;;;;;;;;;;;;;;;4.14;100.00;100506.13;5153354;27;20026;-69
2021/10/30 01:54:24;;;;;;;;;;;;;;;4.11;100.00;100508.97;5155191;27;19969;-69
2021/10/30 01:56:51;;;;;;;;;;;;;;;4.12;100.00;100502.63;5155327;27;19926;-70
2021/10/30 01:59:18;;;;;;;;;;;;;;;4.13;100.00;100506.19;5154990;27;19985;-69
2021/10/30 02:01:44;;;;;;;;;;;;;;;4.15;100.00;100509.66;5154826;27;20013;-69
2021/10/30 02:04:10;;;;;;;;;;;;;;;4.21;100.00;100512.00;5154827;27;19934;-69
2021/10/30 02:06:37;;;;;;;;;;;;;;;4.22;100.00;100507.47;5155680;27;19963;-69
2021/10/30 02:09:03;;;;;;;;;;;;;;;4.22;100.00;100505.66;5153535;27;19931;-70
2021/10/30 02:11:31;;;;;;;;;;;;;;;4.24;100.00;100502.91;5153070;27;19962;-69
2021/10/30 02:13:57;;;;;;;;;;;;;;;4.34;100.00;100501.38;5154244;27;20014;-68
2021/10/30 02:16:23;;;;;;;;;;;;;;;4.37;100.00;100498.53;5154235;27;19962;-68
2021/10/30 02:18:49;;;;;;;;;;;;;;;4.38;100.00;100505.63;5154763;27;20455;-68
2021/10/30 02:21:16;;;;;;;;;;;;;;;4.36;100.00;100497.66;5154127;27;19930;-68
2021/10/30 02:23:42;;;;;;;;;;;;;;;4.31;100.00;100491.69;5154757;27;20368;-68
2021/10/30 02:26:09;;;;;;;;;;;;;;;4.29;100.00;100487.34;5154385;27;20364;-68
2021/10/30 02:28:37;;;;;;;;;;;;;;;4.25;100.00;100499.22;5153109;27;20013;-69
2021/10/30 02:31:03;;;;;;;;;;;;;;;4.23;100.00;100490.41;5153919;27;19923;-68
2021/10/30 02:33:29;;;;;;;;;;;;;;;4.24;100.00;100482.25;5154420;27;19923;-68
2021/10/30 02:35:56;;;;;;;;;;;;;;;4.28;100.00;100480.25;5154357;27;20013;-69
2021/10/30 02:38:22;;;;;;;;;;;;;;;4.25;100.00;100481.31;5154183;27;20448;-69
2021/10/30 02:40:48;;;;;;;;;;;;;;;4.31;100.00;100480.06;5153971;27;20041;-68
2021/10/30 02:43:14;;;;;;;;;;;;;;;4.32;100.00;100490.72;5154044;27;19923;-68
2021/10/30 02:45:42;;;;;;;;;;;;;;;4.34;100.00;100490.63;5154285;27;19927;-69
2021/10/30 02:48:09;;;;;;;;;;;;;;;4.35;100.00;100489.69;5153788;27;19923;-68
2021/10/30 02:50:35;;;;;;;;;;;;;;;4.32;100.00;100495.25;5153917;27;20014;-68
2021/10/30 02:53:01;;;;;;;;;;;;;;;4.27;100.00;100503.56;5153931;27;19933;-68
2021/10/30 02:55:28;;;;;;;;;;;;;;;4.23;100.00;100506.53;5153877;27;20370;-68
2021/10/30 02:57:54;;;;;;;;;;;;;;;4.16;100.00;100506.88;5153968;27;19963;-68
2021/10/30 03:00:21;;;;;;;;;;;;;;;4.11;100.00;100502.75;5153489;27;20014;-68
2021/10/30 03:02:48;;;;;;;;;;;;;;;4.05;100.00;100501.28;5153830;27;20033;-68
2021/10/30 03:05:15;;;;;;;;;;;;;;;4.05;100.00;100508.44;5153288;27;20014;-68
2021/10/30 03:07:41;;;;;;;;;;;;;;;4.01;100.00;100511.31;5153638;27;20038;-68
2021/10/30 03:10:07;;;;;;;;;;;;;;;4.07;100.00;100507.41;5152266;27;20537;-68
2021/10/30 03:12:34;;;;;;;;;;;;;;;4.15;100.00;100505.13;5152290;27;20025;-68
2021/10/30 03:15:00;;;;;;;;;;;;;;;4.17;100.00;100505.94;5153495;27;19923;-68
2021/10/30 03:17:27;;;;;;;;;;;;;;;4.23;100.00;100507.38;5153489;27;20558;-69
2021/10/30 03:19:54;;;;;;;;;;;;;;;4.24;100.00;100513.66;5153176;27;20046;-68
2021/10/30 03:22:20;;;;;;;;;;;;;;;4.21;100.00;100509.31;5152949;27;19927;-68
2021/10/30 03:24:48;;;;;;;;;;;;;;;4.24;100.00;100510.97;5152739;27;19935;-70
2021/10/30 03:27:15;;;;;;;;;;;;;;;4.23;100.00;100512.75;5153233;27;19923;-68
2021/10/30 03:29:42;;;;;;;;;;;;;;;4.24;100.00;100513.66;5153153;27;19927;-68
2021/10/30 03:32:08;;;;;;;;;;;;;;;4.26;100.00;100507.22;5151833;27;20361;-68
2021/10/30 03:34:35;;;;;;;;;;;;;;;4.27;100.00;100508.09;5153129;27;19977;-68
2021/10/30 03:37:02;;;;;;;;;;;;;;;4.29;100.00;100514.22;5151933;27;20063;-68
2021/10/30 03:39:28;;;;;;;;;;;;;;;4.32;100.00;100497.94;5152961;27;20041;-69
2021/10/30 03:41:55;;;;;;;;;;;;;;;4.39;100.00;100495.75;5152934;27;19930;-68
2021/10/30 03:44:21;;;;;;;;;;;;;;;4.40;100.00;100501.03;5152830;27;19923;-68
2021/10/30 03:46:47;;;;;;;;;;;;;;;4.41;100.00;100504.56;5152995;27;20022;-68
2021/10/30 03:49:13;;;;;;;;;;;;;;;4.41;100.00;100500.09;5153008;27;20459;-68
2021/10/30 03:51:40;;;;;;;;;;;;;;;4.40;100.00;100492.97;5152453;27;20026;-69
2021/10/30 03:54:08;;;;;;;;;;;;;;;4.40;100.00;100498.34;5152845;27;19966;-69
2021/10/30 03:56:34;;;;;;;;;;;;;;;4.42;100.00;100501.78;5152642;27;19933;-68
2021/10/30 03:59:00;;;;;;;;;;;;;;;4.45;100.00;100503.44;5152924;27;20593;-69
2021/10/30 04:01:27;;;;;;;;;;;;;;;4.43;100.00;100491.94;5133631;27;19927;-69
2021/10/30 04:03:53;;;;;;;;;;;;;;;4.41;100.00;100497.41;5152621;27;20030;-69
2021/10/30 04:06:20;;;;;;;;;;;;;;;4.38;100.00;100494.00;5152668;27;19930;-68
2021/10/30 04:08:46;;;;;;;;;;;;;;;4.35;100.00;100495.06;5151321;27;20315;-69
2021/10/30 04:11:14;;;;;;;;;;;;;;;4.31;100.00;100493.50;5152214;27;20030;-71
2021/10/30 04:13:40;;;;;;;;;;;;;;;4.23;100.00;100496.63;5150398;27;19930;-69
2021/10/30 04:16:07;;;;;;;;;;;;;;;4.15;100.00;100504.28;5152689;27;20427;-69
2021/10/30 04:18:33;;;;;;;;;;;;;;;4.08;100.00;100501.09;5152406;27;19975;-68
2021/10/30 04:21:00;;;;;;;;;;;;;;;3.98;100.00;100502.56;5152080;27;20010;-69
2021/10/30 04:23:26;;;;;;;;;;;;;;;3.94;100.00;100498.31;5152246;27;20065;-68
2021/10/30 04:25:52;;;;;;;;;;;;;;;3.88;100.00;100493.31;5152568;27;19927;-69
2021/10/30 04:28:21;;;;;;;;;;;;;;;3.87;100.00;100494.28;5152528;27;20333;-70
2021/10/30 04:30:47;;;;;;;;;;;;;;;3.83;100.00;100489.06;5152069;27;19943;-69
2021/10/30 04:33:15;;;;;;;;;;;;;;;3.78;100.00;100501.00;5152440;27;20387;-69
2021/10/30 04:35:43;;;;;;;;;;;;;;;3.73;100.00;100497.72;5152252;27;19923;-69
2021/10/30 04:38:09;;;;;;;;;;;;;;;3.67;100.00;100493.56;5155998;27;19923;-68
2021/10/30 04:40:35;;;;;;;;;;;;;;;3.62;100.00;100496.53;5156266;27;19930;-68
2021/10/30 04:43:03;;;;;;;;;;;;;;;3.51;100.00;100494.44;5156359;27;20018;-68
2021/10/30 04:45:31;;;;;;;;;;;;;;;3.50;100.00;100495.38;5156409;27;19972;-68
2021/10/30 04:47:57;;;;;;;;;;;;;;;3.51;100.00;100501.59;5156437;27;19929;-68
2021/10/30 04:50:23;;;;;;;;;;;;;;;3.49;100.00;100496.31;5156090;27;20681;-68
2021/10/30 04:52:49;;;;;;;;;;;;;;;3.50;100.00;100491.81;5156132;27;19923;-68
2021/10/30 04:55:16;;;;;;;;;;;;;;;3.52;100.00;100485.41;5156066;27;20025;-69
2021/10/30 04:57:42;;;;;;;;;;;;;;;3.57;100.00;100492.34;5154189;27;20017;-68
2021/10/30 05:00:09;;;;;;;;;;;;;;;3.67;100.00;100496.25;5151211;27;19930;-69
2021/10/30 05:02:36;;;;;;;;;;;;;;;3.79;100.00;100490.19;5155868;27;20018;-69
2021/10/30 05:05:03;;;;;;;;;;;;;;;3.84;100.00;100482.72;5147001;27;20018;-69
2021/10/30 05:07:29;;;;;;;;;;;;;;;3.88;100.00;100480.75;5133929;27;20018;-69
2021/10/30 05:09:55;;;;;;;;;;;;;;;3.93;100.00;100484.03;5134755;27;19927;-69
2021/10/30 05:12:22;;;;;;;;;;;;;;;3.94;100.00;100469.66;5133224;27;20022;-69
2021/10/30 05:14:48;;;;;;;;;;;;;;;3.97;100.00;100468.63;5135071;27;19923;-69
2021/10/30 05:17:14;;;;;;;;;;;;;;;3.96;100.00;100462.38;5133413;27;19923;-71
2021/10/30 05:19:42;;;;;;;;;;;;;;;3.95;100.00;100463.31;5133229;27;20510;-70
2021/10/30 05:22:08;;;;;;;;;;;;;;;4.00;100.00;100460.38;5133368;27;19923;-70
2021/10/30 05:24:34;;;;;;;;;;;;;;;4.07;100.00;100442.09;5137477;27;20010;-70
2021/10/30 05:27:01;;;;;;;;;;;;;;;4.08;100.00;100450.06;5154514;27;19926;-70
2021/10/30 05:29:27;;;;;;;;;;;;;;;4.09;100.00;100441.03;5155445;27;19933;-70
2021/10/30 05:31:53;;;;;;;;;;;;;;;4.07;100.00;100451.00;5155142;27;19972;-70
2021/10/30 05:34:19;;;;;;;;;;;;;;;4.10;100.00;100453.53;5155397;27;19929;-70
2021/10/30 05:37:06;;;;;;;;;;;;;;;4.16;100.00;100463.03;5154717;27;19938;-70
2021/10/30 05:39:52;;;;;;;;;;;;;;;4.12;100.00;100456.97;5149905;27;19929;-70
2021/10/30 05:42:19;;;;;;;;;;;;;;;4.12;100.00;100461.50;5148610;27;20011;-70
2021/10/30 05:44:46;;;;;;;;;;;;;;;4.06;100.00;100454.63;5144508;27;19924;-69
2021/10/30 05:47:13;;;;;;;;;;;;;;;4.00;100.00;100471.13;5135662;27;19928;-70
2021/10/30 05:49:41;;;;;;;;;;;;;;;3.99;100.00;100470.25;5133444;27;20276;-70
2021/10/30 05:52:09;;;;;;;;;;;;;;;3.97;100.00;100463.25;5133069;27;19985;-70
2021/10/30 05:54:36;;;;;;;;;;;;;;;3.96;100.00;100464.19;5137008;27;20014;-70
2021/10/30 05:57:02;;;;;;;;;;;;;;;3.95;100.00;100466.00;5154640;27;19980;-70
2021/10/30 05:59:30;;;;;;;;;;;;;;;3.97;100.00;100471.31;5148931;27;19975;-75
2021/10/30 06:01:56;;;;;;;;;;;;;;;3.98;100.00;100475.72;5153447;27;19968;-75
2021/10/30 06:04:22;;;;;;;;;;;;;;;3.99;100.00;100472.94;5154562;27;19953;-75
2021/10/30 06:06:49;;;;;;;;;;;;;;;4.04;100.00;100472.69;5150781;27;20383;-75
2021/10/30 06:09:17;;;;;;;;;;;;;;;4.04;100.00;100455.72;5153408;27;19923;-75
2021/10/30 06:11:44;;;;;;;;;;;;;;;4.09;100.00;100461.66;5153750;27;19970;-75
2021/10/30 06:14:11;;;;;;;;;;;;;;;4.07;100.00;100469.81;5153456;27;20459;-75
2021/10/30 06:16:38;;;;;;;;;;;;;;;4.07;100.00;100469.81;5153387;27;20428;-74
2021/10/30 06:19:04;;;;;;;;;;;;;;;4.10;100.00;100458.91;5137675;27;19933;-74
2021/10/30 06:21:30;;;;;;;;;;;;;;;4.12;100.00;100462.34;5138429;27;19923;-74
2021/10/30 06:23:58;;;;;;;;;;;;;;;4.12;100.00;100456.97;5154058;27;20030;-74
2021/10/30 06:26:26;;;;;;;;;;;;;;;4.15;100.00;100464.84;5153240;27;19927;-74
2021/10/30 06:28:53;;;;;;;;;;;;;;;4.18;100.00;100456.63;5154645;27;20070;-74
2021/10/30 06:31:20;;;;;;;;;;;;;;;4.19;100.00;100461.00;5134374;27;20002;-74
2021/10/30 06:33:46;;;;;;;;;;;;;;;4.24;100.00;100459.91;5133756;27;19923;-73
2021/10/30 06:36:12;;;;;;;;;;;;;;;4.27;100.00;100462.41;5160941;27;19934;-73
2021/10/30 06:38:39;;;;;;;;;;;;;;;4.32;100.00;100463.84;5174032;27;20617;-74
2021/10/30 06:41:06;;;;;;;;;;;;;;;4.42;100.00;100464.16;5142644;27;19923;-68
2021/10/30 06:43:37;;;;;;;;;;;;;;;4.53;100.00;100471.63;5135429;27;19959;-67
2021/10/30 06:46:04;;;;;;;;;;;;;;;4.62;100.00;100465.69;5133518;27;20018;-67
2021/10/30 06:48:30;;;;;;;;;;;;;;;4.74;100.00;100463.19;5133396;27;20018;-68
2021/10/30 06:50:56;;;;;;;;;;;;;;;4.84;100.00;100465.22;5134165;27;19927;-67
2021/10/30 06:53:23;;;;;;;;;;;;;;;4.92;100.00;100466.56;5136908;27;19927;-67
2021/10/30 06:55:49;;;;;;;;;;;;;;;5.00;100.00;100464.28;5153872;27;20399;-68
2021/10/30 06:58:16;;;;;;;;;;;;;;;5.10;100.00;100453.81;5136121;27;19927;-68
2021/10/30 07:00:44;;;;;;;;;;;;;;;5.23;100.00;100456.59;5131348;27;19945;-68
2021/10/30 07:03:10;;;;;;;;;;;;;;;5.31;100.00;100455.13;5132963;27;20027;-67
2021/10/30 07:05:36;;;;;;;;;;;;;;;5.42;100.00;100449.06;5133009;27;20395;-67
2021/10/30 07:08:03;;;;;;;;;;;;;;;5.55;100.00;100453.69;5134465;27;20018;-68
2021/10/30 07:10:29;;;;;;;;;;;;;;;5.62;100.00;100446.91;5132493;27;19966;-68
2021/10/30 07:12:55;;;;;;;;;;;;;;;5.69;100.00;100451.81;5132917;27;19930;-69
2021/10/30 07:15:22;;;;;;;;;;;;;;;5.78;100.00;100455.72;5131220;27;20449;-70
2021/10/30 07:17:49;;;;;;;;;;;;;;;5.90;100.00;100447.81;5141145;27;20375;-72
2021/10/30 07:20:15;;;;;;;;;;;;;;;5.99;100.00;100437.31;5153225;27;20018;-69
2021/10/30 07:22:42;;;;;;;;;;;;;;;6.13;100.00;100443.59;5153047;27;20010;-69
2021/10/30 07:25:09;;;;;;;;;;;;;;;6.27;100.00;100440.00;5153227;27;19953;-69
2021/10/30 07:27:35;;;;;;;;;;;;;;;6.43;100.00;100443.38;5153356;27;20013;-70
2021/10/30 07:30:01;;;;;;;;;;;;;;;6.59;100.00;100435.09;5151770;27;20049;-70
2021/10/30 07:32:28;;;;;;;;;;;;;;;6.77;100.00;100438.31;5149462;27;19927;-70
2021/10/30 07:34:55;;;;;;;;;;;;;;;6.98;100.00;100438.66;5149349;27;20031;-69
2021/10/30 07:37:21;;;;;;;;;;;;;;;7.30;100.00;100434.63;5152571;27;20013;-69
2021/10/30 07:39:48;;;;;;;;;;;;;;;7.66;100.00;100439.19;5149440;27;20444;-69
2021/10/30 07:42:14;;;;;;;;;;;;;;;8.06;100.00;100424.56;5152521;27;19931;-69
2021/10/30 07:44:41;;;;;;;;;;;;;;;8.48;100.00;100435.78;5152992;27;20013;-69
2021/10/30 07:47:07;;;;;;;;;;;;;;;8.82;100.00;100426.91;5152977;27;20073;-69
2021/10/30 07:49:34;;;;;;;;;;;;;;;9.03;100.00;100427.03;5152294;27;19923;-69
2021/10/30 07:52:02;;;;;;;;;;;;;;;9.35;100.00;100412.75;5151638;27;19958;-69
2021/10/30 07:54:28;;;;;;;;;;;;;;;9.57;100.00;100419.13;5152721;27;20340;-70
2021/10/30 07:56:55;;;;;;;;;;;;;;;9.71;100.00;100413.44;5152270;27;19931;-69
2021/10/30 07:59:21;;;;;;;;;;;;;;;9.76;100.00;100407.66;5152386;27;19989;-69
2021/10/30 08:01:50;;;;;;;;;;;;;;;9.86;100.00;100423.03;5151995;27;20014;-70
2021/10/30 08:04:16;;;;;;;;;;;;;;;9.89;100.00;100420.03;5149434;27;19927;-69
2021/10/30 08:06:42;;;;;;;;;;;;;;;10.08;100.00;100415.78;5150913;27;19966;-69
2021/10/30 08:09:10;;;;;;;;;;;;;;;10.47;100.00;100413.41;5151612;27;19923;-69
2021/10/30 08:11:36;;;;;;;;;;;;;;;10.65;100.00;100404.69;5149103;27;20298;-69
2021/10/30 08:14:03;;;;;;;;;;;;;;;10.93;100.00;100413.13;5150729;27;20133;-69
2021/10/30 08:16:29;;;;;;;;;;;;;;;10.83;100.00;100413.94;5151916;27;20013;-69
2021/10/30 08:18:56;;;;;;;;;;;;;;;10.89;100.00;100399.00;5151996;27;19927;-70
2021/10/30 08:21:22;;;;;;;;;;;;;;;11.08;100.00;100398.22;5151974;27;20034;-69
2021/10/30 08:23:49;;;;;;;;;;;;;;;11.08;100.00;100395.50;5151877;27;19923;-69
2021/10/30 08:26:17;;;;;;;;;;;;;;;10.98;100.00;100390.03;5151304;27;19933;-70
2021/10/30 08:28:43;;;;;;;;;;;;;;;11.13;100.00;100386.94;5152180;27;19923;-69
2021/10/30 08:31:09;;;;;;;;;;;;;;;11.20;100.00;100383.53;5151559;27;20017;-70
2021/10/30 08:33:36;;;;;;;;;;;;;;;11.07;100.00;100382.91;5151932;27;19933;-69
2021/10/30 08:36:02;;;;;;;;;;;;;;;11.21;100.00;100363.53;5151883;27;19923;-69
2021/10/30 08:38:28;;;;;;;;;;;;;;;11.36;100.00;100369.44;5151984;27;19923;-69
2021/10/30 08:40:56;;;;;;;;;;;;;;;11.51;100.00;100367.19;5152589;27;20503;-69
2021/10/30 08:43:25;;;;;;;;;;;;;;;11.85;100.00;100357.78;5153248;27;20471;-69
2021/10/30 08:45:53;;;;;;;;;;;;;;;11.91;100.00;100354.50;5151953;27;20314;-69
2021/10/30 08:48:20;;;;;;;;;;;;;;;12.11;100.00;100357.28;5152020;27;20399;-69
2021/10/30 08:50:46;;;;;;;;;;;;;;;11.94;100.00;100356.09;5151760;27;19935;-69
2021/10/30 08:53:12;;;;;;;;;;;;;;;12.21;100.00;100350.81;5151673;27;20009;-68
2021/10/30 08:55:39;;;;;;;;;;;;;;;12.16;100.00;100347.66;5151743;27;20402;-69
2021/10/30 08:58:06;;;;;;;;;;;;;;;12.10;100.00;100347.38;5151502;27;19955;-69
2021/10/30 09:00:37;;;;;;;;;;;;;;;12.09;100.00;100342.94;5151300;27;19930;-69
2021/10/30 09:03:04;;;;;;;;;;;;;;;12.02;100.00;100346.22;5151242;27;19923;-69
2021/10/30 09:05:32;;;;;;;;;;;;;;;12.23;100.00;100329.75;5151867;27;19923;-69
2021/10/30 09:07:59;;;;;;;;;;;;;;;12.49;100.00;100341.88;5149162;27;20407;-69
2021/10/30 09:10:26;;;;;;;;;;;;;;;12.88;100.00;100334.47;5151195;27;20381;-69
2021/10/30 09:12:54;;;;;;;;;;;;;;;13.12;100.00;100324.91;5151573;27;19929;-69
2021/10/30 09:15:29;;;;;;;;;;;;;;;13.39;100.00;100324.06;5150969;27;20045;-69
2021/10/30 09:17:57;;;;;;;;;;;;;;;13.35;100.00;100303.53;5150270;27;19923;-69
2021/10/30 09:20:29;;;;;;;;;;;;;;;13.62;100.00;100304.53;5151054;27;20021;-69
2021/10/30 09:22:56;;;;;;;;;;;;;;;13.84;100.00;100305.06;5151384;27;19923;-69
2021/10/30 09:25:22;;;;;;;;;;;;;;;14.10;100.00;100307.88;5155444;27;20017;-69
2021/10/30 09:27:50;;;;;;;;;;;;;;;14.05;100.00;100299.31;5155221;27;20387;-69
2021/10/30 09:30:17;;;;;;;;;;;;;;;13.88;100.00;100304.63;5155307;27;19927;-69
2021/10/30 09:32:50;;;;;;;;;;;;;;;14.02;100.00;100302.34;5155352;27;20045;-69
2021/10/30 09:35:22;;;;;;;;;;;;;;;14.34;100.00;100311.81;5155623;27;20026;-69
2021/10/30 09:37:49;;;;;;;;;;;;;;;14.40;100.00;100314.78;5155407;27;19923;-68
2021/10/30 09:40:15;;;;;;;;;;;;;;;14.53;100.00;100303.41;5153490;27;20379;-68
2021/10/30 09:42:42;;;;;;;;;;;;;;;14.75;100.00;100303.91;5155154;27;20014;-69
2021/10/30 09:45:09;;;;;;;;;;;;;;;14.55;100.00;100304.09;5155250;27;19923;-69
2021/10/30 09:47:35;;;;;;;;;;;;;;;14.42;100.00;100297.34;5155379;27;19923;-68
2021/10/30 09:50:02;;;;;;;;;;;;;;;14.21;100.00;100285.78;5154813;27;20179;-67
2021/10/30 09:52:30;;;;;;;;;;;;;;;13.88;100.00;100285.53;5155178;27;19927;-68
2021/10/30 09:54:56;;;;;;;;;;;;;;;13.94;100.00;100288.66;5157784;27;19923;-68
2021/10/30 09:57:26;;;;;;;;;;;;;;;13.98;100.00;100279.13;5167196;27;19926;-68
2021/10/30 09:59:53;;;;;;;;;;;;;;;14.15;100.00;100275.50;5175205;27;19926;-69
2021/10/30 10:02:22;;;;;;;;;;;;;;;14.26;100.00;100281.69;5175607;27;19927;-68
2021/10/30 10:04:49;;;;;;;;;;;;;;;14.02;100.00;100272.34;5175822;27;20025;-68
2021/10/30 10:07:16;;;;;;;;;;;;;;;14.25;100.00;100283.59;5174420;27;19950;-69
2021/10/30 10:09:44;;;;;;;;;;;;;;;14.41;100.00;100277.38;5174266;27;19937;-69
2021/10/30 10:12:12;;;;;;;;;;;;;;;14.21;100.00;100280.31;5170408;27;19924;-68
2021/10/30 10:14:40;;;;;;;;;;;;;;;14.32;100.00;100273.72;5141683;27;19961;-68
2021/10/30 10:17:06;;;;;;;;;;;;;;;14.55;100.00;100265.88;5154336;27;20007;-70
2021/10/30 10:19:33;;;;;;;;;;;;;;;14.50;100.00;100272.84;5134988;27;20385;-70
2021/10/30 10:21:59;;;;;;;;;;;;;;;14.66;100.00;100264.78;5133610;27;20475;-68
2021/10/30 10:24:29;;;;;;;;;;;;;;;14.51;100.00;100255.41;5139925;27;19958;-69
2021/10/30 10:26:57;;;;;;;;;;;;;;;14.55;100.00;100259.53;5154548;27;20315;-69
2021/10/30 10:29:31;;;;;;;;;;;;;;;14.52;100.00;100248.94;5154111;27;20027;-69
2021/10/30 10:31:58;;;;;;;;;;;;;;;14.51;100.00;100237.19;5154257;27;19962;-68
2021/10/30 10:34:29;;;;;;;;;;;;;;;14.43;100.00;100228.94;5153701;27;19929;-69
2021/10/30 10:37:10;;;;;;;;;;;;;;;14.80;100.00;100224.19;5153925;27;19958;-69
2021/10/30 10:39:37;;;;;;;;;;;;;;;14.78;100.00;100216.16;5153758;27;19923;-69
2021/10/30 10:42:05;;;;;;;;;;;;;;;14.59;100.00;100210.91;5153956;27;19927;-68
2021/10/30 10:44:59;;;;;;;;;;;;;;;14.46;100.00;100205.94;5152770;27;20006;-71
2021/10/30 10:47:49;;;;;;;;;;;;;;;14.77;100.00;100199.94;5154116;27;20030;-70
2021/10/30 10:50:18;;;;;;;;;;;;;;;14.72;100.00;100194.97;5153704;27;20341;-70
2021/10/30 10:53:05;;;;;;;;;;;;;;;14.79;100.00;100201.50;5153835;27;19968;-70
2021/10/30 10:55:33;;;;;;;;;;;;;;;14.71;100.00;100202.31;5153381;27;19967;-70
2021/10/30 10:58:02;;;;;;;;;;;;;;;14.96;100.00;100194.19;5153629;27;20010;-70
2021/10/30 11:00:29;;;;;;;;;;;;;;;15.07;100.00;100187.56;5152033;27;20026;-70
2021/10/30 11:02:56;;;;;;;;;;;;;;;14.93;100.00;100166.38;5153228;27;20436;-70
2021/10/30 11:05:26;;;;;;;;;;;;;;;14.86;100.00;100167.00;5153672;27;19971;-70
2021/10/30 11:08:14;;;;;;;;;;;;;;;14.83;100.00;100171.94;5153772;27;20311;-71
2021/10/30 11:10:42;;;;;;;;;;;;;;;14.93;100.00;100169.09;5148100;27;20029;-70
2021/10/30 11:13:11;;;;;;;;;;;;;;;14.89;100.00;100153.00;5153239;27;19927;-70
2021/10/30 11:15:41;;;;;;;;;;;;;;;14.73;100.00;100152.97;5153451;27;19929;-70
2021/10/30 11:18:12;;;;;;;;;;;;;;;14.57;100.00;100162.78;5153403;27;20299;-70
2021/10/30 11:20:40;;;;;;;;;;;;;;;14.60;100.00;100163.47;5153186;27;19923;-70
2021/10/30 11:23:11;;;;;;;;;;;;;;;14.83;100.00;100159.16;5153183;27;20403;-71
2021/10/30 11:25:37;;;;;;;;;;;;;;;15.34;100.00;100158.19;5153182;27;19977;-70
2021/10/30 11:28:03;;;;;;;;;;;;;;;15.77;100.00;100150.69;5153240;27;19930;-70
2021/10/30 11:30:32;;;;;;;;;;;;;;;16.02;99.70;100147.94;5150236;27;19937;-70
2021/10/30 11:33:00;;;;;;;;;;;;;;;15.94;100.00;100142.47;5132540;27;20120;-72
2021/10/30 11:35:26;;;;;;;;;;;;;;;15.71;100.00;100145.91;5130693;27;20018;-70
2021/10/30 11:37:53;;;;;;;;;;;;;;;15.70;100.00;100133.25;5132383;27;19923;-69
2021/10/30 11:40:19;;;;;;;;;;;;;;;15.72;100.00;100134.78;5131866;27;20455;-70
2021/10/30 11:42:46;;;;;;;;;;;;;;;15.69;98.55;100135.13;5150614;27;19927;-70
2021/10/30 11:45:14;;;;;;;;;;;;;;;15.83;98.46;100130.91;5153011;27;19945;-69
2021/10/30 11:47:42;;;;;;;;;;;;;;;16.11;96.64;100132.34;5151980;27;19929;-69
2021/10/30 11:50:10;;;;;;;;;;;;;;;16.02;95.86;100120.56;5152423;27;20026;-70
2021/10/30 11:52:42;;;;;;;;;;;;;;;16.24;97.35;100122.56;5152867;27;20384;-70
2021/10/30 11:55:08;;;;;;;;;;;;;;;16.24;95.14;100114.34;5152767;27;19962;-69
2021/10/30 11:57:43;;;;;;;;;;;;;;;16.31;93.50;100108.16;5152668;27;19935;-70
2021/10/30 12:00:10;;;;;;;;;;;;;;;16.45;94.25;100106.56;5152110;27;19929;-70
2021/10/30 12:02:39;;;;;;;;;;;;;;;16.52;91.81;100113.03;5133890;27;19928;-69
2021/10/30 12:05:12;;;;;;;;;;;;;;;16.68;91.63;100109.38;5130886;27;21292;-69
2021/10/30 12:07:39;;;;;;;;;;;;;;;16.86;89.84;100103.59;5131805;27;19923;-70
2021/10/30 12:10:06;;;;;;;;;;;;;;;17.29;89.32;100108.63;5131444;27;20339;-70
2021/10/30 12:12:32;;;;;;;;;;;;;;;17.14;83.05;100101.19;5131375;27;19932;-68
2021/10/30 12:14:58;;;;;;;;;;;;;;;16.89;83.71;100101.38;5131717;27;20022;-68
2021/10/30 12:17:26;;;;;;;;;;;;;;;16.67;85.90;100094.78;5131533;27;19984;-70
2021/10/30 12:19:55;;;;;;;;;;;;;;;16.54;88.55;100089.03;5131609;27;19924;-68
2021/10/30 12:22:23;;;;;;;;;;;;;;;16.58;85.89;100082.16;5131118;28;20021;-68
2021/10/30 12:24:57;;;;;;;;;;;;;;;16.69;84.83;100078.19;5131981;28;19929;-68
2021/10/30 12:27:23;;;;;;;;;;;;;;;16.65;84.92;100076.81;5148995;27;19947;-70
2021/10/30 12:29:50;;;;;;;;;;;;;;;16.53;85.45;100073.66;5152402;27;20031;-69
2021/10/30 12:32:17;;;;;;;;;;;;;;;16.83;87.78;100084.78;5151430;27;19937;-70
2021/10/30 12:34:54;;;;;;;;;;;;;;;16.69;84.93;100072.72;5140884;27;19922;-70